Time;durP1;ratioP1;P1;durP2;ratioP2;P2;SDS_P1;SDS_P2;PMS_P1;PMS_P2;Temp;Humidity;BMP_temperature;BMP_pressure;BME280_temperature;BME280_humidity;BME280_pressure;Samples;Min_cycle;Max_cycle;Signal;HPM_P1;HPM_P2
2021/07/01 00:00:52;;;;;;;0.50;0.50;;;14.00;99.90;;;;;;5041120;28;20177;-62
2021/07/01 00:03:18;;;;;;;0.70;0.60;;;14.00;99.90;;;;;;5056125;28;20630;-62
2021/07/01 00:05:44;;;;;;;0.70;0.67;;;13.90;99.90;;;;;;5037261;28;20430;-62
2021/07/01 00:08:10;;;;;;;0.40;0.40;;;14.00;99.90;;;;;;5049218;28;20184;-63
2021/07/01 00:10:35;;;;;;;0.57;0.57;;;14.00;99.90;;;;;;5056226;28;20929;-62
2021/07/01 00:13:01;;;;;;;1.27;0.57;;;14.00;99.90;;;;;;5044289;28;20414;-62
2021/07/01 00:15:30;;;;;;;0.60;0.60;;;14.00;99.90;;;;;;5049619;28;20190;-62
2021/07/01 00:17:56;;;;;;;0.63;0.63;;;14.00;99.90;;;;;;5054948;28;20204;-62
2021/07/01 00:20:22;;;;;;;0.50;0.50;;;14.00;99.90;;;;;;5056087;28;20425;-62
2021/07/01 00:22:50;;;;;;;1.13;1.03;;;14.00;99.90;;;;;;5044831;28;20426;-62
2021/07/01 00:25:16;;;;;;;1.73;1.17;;;13.90;99.90;;;;;;5055818;28;20492;-62
2021/07/01 00:27:43;;;;;;;0.77;0.77;;;14.00;99.90;;;;;;5041176;28;20773;-62
2021/07/01 00:30:10;;;;;;;0.90;0.90;;;13.90;99.90;;;;;;5035810;28;20455;-62
2021/07/01 00:32:36;;;;;;;0.83;0.80;;;13.90;99.90;;;;;;5049283;28;20409;-62
2021/07/01 00:35:04;;;;;;;0.70;0.70;;;14.00;99.90;;;;;;5038963;28;20426;-62
2021/07/01 00:37:32;;;;;;;1.30;1.03;;;14.00;99.90;;;;;;5035567;28;20401;-63
2021/07/01 00:40:02;;;;;;;3.70;0.97;;;14.00;99.90;;;;;;5035543;28;20485;-62
2021/07/01 00:42:27;;;;;;;1.03;0.70;;;14.00;99.90;;;;;;5047928;28;20426;-62
2021/07/01 00:44:53;;;;;;;0.60;0.60;;;14.00;99.90;;;;;;5041200;28;20917;-62
2021/07/01 00:47:19;;;;;;;0.60;0.50;;;14.00;99.90;;;;;;5045489;28;20184;-62
2021/07/01 00:49:44;;;;;;;0.80;0.80;;;14.00;99.90;;;;;;5055214;28;20417;-62
2021/07/01 00:52:11;;;;;;;0.60;0.60;;;14.00;99.90;;;;;;5054308;28;20182;-62
2021/07/01 00:54:37;;;;;;;0.70;0.57;;;14.10;99.90;;;;;;5055398;28;20184;-62
2021/07/01 00:57:05;;;;;;;0.70;0.70;;;14.10;99.90;;;;;;5047143;28;20578;-62
2021/07/01 00:59:30;;;;;;;1.20;1.10;;;14.10;99.90;;;;;;5035079;28;20455;-62
2021/07/01 01:01:56;;;;;;;0.70;0.70;;;14.10;99.90;;;;;;5041608;28;20432;-62
2021/07/01 01:04:22;;;;;;;0.50;0.50;;;14.10;99.90;;;;;;5048274;28;20270;-62
2021/07/01 01:06:47;;;;;;;0.67;0.60;;;14.10;99.90;;;;;;5035162;28;20212;-62
2021/07/01 01:09:13;;;;;;;0.63;0.60;;;14.10;99.90;;;;;;5034975;28;20201;-62
2021/07/01 01:11:39;;;;;;;0.87;0.87;;;14.10;99.90;;;;;;5054302;28;20527;-62
2021/07/01 01:14:04;;;;;;;0.63;0.63;;;14.10;99.90;;;;;;5046268;28;20185;-62
2021/07/01 01:16:30;;;;;;;0.80;0.80;;;14.20;99.90;;;;;;5035358;28;20196;-62
2021/07/01 01:18:56;;;;;;;0.57;0.50;;;14.20;99.90;;;;;;5034554;28;20299;-62
2021/07/01 01:21:27;;;;;;;0.70;0.70;;;14.20;99.90;;;;;;5051802;28;20426;-62
2021/07/01 01:23:58;;;;;;;0.60;0.60;;;14.20;99.90;;;;;;5054792;28;20230;-62
2021/07/01 01:26:24;;;;;;;0.70;0.63;;;14.20;99.90;;;;;;5037770;28;20427;-62
2021/07/01 01:28:51;;;;;;;0.60;0.60;;;14.20;99.90;;;;;;5042779;28;20441;-62
2021/07/01 01:31:17;;;;;;;0.70;0.70;;;14.20;99.90;;;;;;5053402;28;20401;-62
2021/07/01 01:33:44;;;;;;;1.17;0.67;;;14.20;99.90;;;;;;5054657;28;20414;-62
2021/07/01 01:36:10;;;;;;;0.63;0.63;;;14.20;99.90;;;;;;5053812;28;20570;-61
2021/07/01 01:38:35;;;;;;;0.80;0.80;;;14.20;99.90;;;;;;5054248;28;20498;-61
2021/07/01 01:41:01;;;;;;;0.73;0.73;;;14.20;99.90;;;;;;5052604;28;20891;-61
2021/07/01 01:43:27;;;;;;;0.83;0.83;;;14.20;99.90;;;;;;5046655;28;20180;-61
2021/07/01 01:45:53;;;;;;;0.87;0.87;;;14.30;99.90;;;;;;5034877;28;20184;-61
2021/07/01 01:48:20;;;;;;;0.70;0.70;;;14.20;99.90;;;;;;5032757;28;20173;-62
2021/07/01 01:50:46;;;;;;;0.77;0.77;;;14.20;99.90;;;;;;5049302;28;20961;-62
2021/07/01 01:53:12;;;;;;;0.60;0.60;;;14.20;99.90;;;;;;5053935;28;20430;-62
2021/07/01 01:55:39;;;;;;;0.70;0.70;;;14.20;99.90;;;;;;5053624;28;20185;-61
2021/07/01 01:58:06;;;;;;;0.60;0.60;;;14.20;99.90;;;;;;5053784;28;20833;-61
2021/07/01 02:00:32;;;;;;;0.53;0.50;;;14.20;99.90;;;;;;5050213;28;20438;-62
2021/07/01 02:02:59;;;;;;;1.00;1.00;;;14.20;99.90;;;;;;5053518;28;20386;-62
2021/07/01 02:05:26;;;;;;;0.80;0.80;;;14.20;99.90;;;;;;5043016;28;20422;-63
2021/07/01 02:07:52;;;;;;;0.67;0.67;;;14.20;99.90;;;;;;5033505;28;20449;-62
2021/07/01 02:10:21;;;;;;;0.70;0.70;;;14.20;99.90;;;;;;5034080;28;20836;-62
2021/07/01 02:12:48;;;;;;;1.37;0.63;;;14.20;99.90;;;;;;5039456;28;20435;-63
2021/07/01 02:15:16;;;;;;;0.70;0.70;;;14.20;99.90;;;;;;5054009;28;20880;-62
2021/07/01 02:17:41;;;;;;;0.60;0.60;;;14.20;99.90;;;;;;5034702;28;20514;-62
2021/07/01 02:20:16;;;;;;;0.50;0.50;;;14.20;99.90;;;;;;5033749;28;20926;-62
2021/07/01 02:22:43;;;;;;;0.93;0.93;;;14.20;99.90;;;;;;5043565;28;20173;-62
2021/07/01 02:25:09;;;;;;;0.57;0.57;;;14.20;99.90;;;;;;5033974;28;20758;-62
2021/07/01 02:27:36;;;;;;;0.70;0.70;;;14.20;99.90;;;;;;5033717;28;20424;-62
2021/07/01 02:30:10;;;;;;;1.00;0.70;;;14.20;99.90;;;;;;5033448;28;20666;-62
2021/07/01 02:32:36;;;;;;;0.40;0.40;;;14.20;99.90;;;;;;5052394;28;20427;-63
2021/07/01 02:35:02;;;;;;;0.40;0.40;;;14.20;99.90;;;;;;5053628;28;20417;-62
2021/07/01 02:37:28;;;;;;;0.70;0.57;;;14.20;99.90;;;;;;5037395;28;20219;-62
2021/07/01 02:39:53;;;;;;;0.97;0.90;;;14.20;99.90;;;;;;5033704;28;20585;-62
2021/07/01 02:42:19;;;;;;;0.50;0.50;;;14.30;99.90;;;;;;5047934;28;20405;-62
2021/07/01 02:44:45;;;;;;;0.70;0.70;;;14.30;99.90;;;;;;5053583;28;20180;-62
2021/07/01 02:47:10;;;;;;;0.50;0.50;;;14.20;99.90;;;;;;5034352;28;20646;-62
2021/07/01 02:49:36;;;;;;;0.60;0.53;;;14.20;99.90;;;;;;5033357;28;20203;-63
2021/07/01 02:52:02;;;;;;;0.90;0.60;;;14.30;99.90;;;;;;5045384;28;20191;-62
2021/07/01 02:54:28;;;;;;;0.60;0.60;;;14.30;99.90;;;;;;5053335;28;20181;-63
2021/07/01 02:56:54;;;;;;;0.50;0.50;;;14.30;99.90;;;;;;5042544;28;20427;-63
2021/07/01 02:59:19;;;;;;;0.50;0.50;;;14.30;99.90;;;;;;5032897;28;20211;-63
2021/07/01 03:01:50;;;;;;;0.93;0.60;;;14.30;99.90;;;;;;5049019;28;20255;-62
2021/07/01 03:04:16;;;;;;;1.50;0.97;;;14.30;99.90;;;;;;5053353;28;20175;-62
2021/07/01 03:06:43;;;;;;;0.70;0.70;;;14.30;99.90;;;;;;5040586;28;20419;-63
2021/07/01 03:09:09;;;;;;;0.87;0.87;;;14.30;99.90;;;;;;5048601;28;20442;-63
2021/07/01 03:11:35;;;;;;;0.50;0.50;;;14.30;99.90;;;;;;5052385;28;20952;-62
2021/07/01 03:14:00;;;;;;;0.70;0.70;;;14.30;99.90;;;;;;5054122;28;20418;-63
2021/07/01 03:16:26;;;;;;;0.80;0.80;;;14.30;99.90;;;;;;5047698;28;20431;-62
2021/07/01 03:18:52;;;;;;;0.93;0.70;;;14.40;99.90;;;;;;5036841;28;20208;-63
2021/07/01 03:21:19;;;;;;;0.73;0.70;;;14.30;99.90;;;;;;5044610;28;20568;-62
2021/07/01 03:23:45;;;;;;;0.90;0.60;;;14.30;99.90;;;;;;5049387;28;20942;-62
2021/07/01 03:26:13;;;;;;;0.50;0.50;;;14.40;99.90;;;;;;5037208;28;20905;-63
2021/07/01 03:28:38;;;;;;;0.50;0.50;;;14.30;99.90;;;;;;5036600;28;20438;-63
2021/07/01 03:31:05;;;;;;;1.10;1.10;;;14.30;99.90;;;;;;5042270;28;20419;-62
2021/07/01 03:33:31;;;;;;;0.80;0.80;;;14.30;99.90;;;;;;5056792;28;20266;-62
2021/07/01 03:35:57;;;;;;;1.93;0.60;;;14.30;99.90;;;;;;5051877;28;20514;-63
2021/07/01 03:38:23;;;;;;;0.73;0.73;;;14.30;99.90;;;;;;5036174;28;20459;-62
2021/07/01 03:40:49;;;;;;;1.70;1.10;;;14.30;99.90;;;;;;5037041;28;20845;-62
2021/07/01 03:43:14;;;;;;;0.60;0.60;;;14.30;99.90;;;;;;5036917;28;20499;-63
2021/07/01 03:45:40;;;;;;;0.50;0.50;;;14.30;99.90;;;;;;5037778;28;20399;-62
2021/07/01 03:48:06;;;;;;;1.00;0.73;;;14.30;99.90;;;;;;5056461;28;20531;-63
2021/07/01 03:50:32;;;;;;;0.73;0.70;;;14.30;99.90;;;;;;5054964;28;20200;-63
2021/07/01 03:52:58;;;;;;;0.50;0.50;;;14.30;99.90;;;;;;5050965;28;20428;-62
2021/07/01 03:55:24;;;;;;;0.60;0.60;;;14.30;99.90;;;;;;5036731;28;20184;-62
2021/07/01 03:57:49;;;;;;;0.90;0.90;;;14.30;99.90;;;;;;5051312;28;20215;-63
2021/07/01 04:00:16;;;;;;;0.60;0.60;;;14.20;99.90;;;;;;5042572;28;20436;-62
2021/07/01 04:02:42;;;;;;;0.73;0.73;;;14.30;99.90;;;;;;5036722;28;20647;-63
2021/07/01 04:05:08;;;;;;;0.57;0.57;;;14.20;99.90;;;;;;5036588;28;20534;-63
2021/07/01 04:07:34;;;;;;;1.20;0.60;;;14.20;99.90;;;;;;5044832;28;20419;-63
2021/07/01 04:10:06;;;;;;;0.53;0.53;;;14.20;99.90;;;;;;5053411;28;20442;-62
2021/07/01 04:12:32;;;;;;;0.60;0.60;;;14.20;99.90;;;;;;5056880;28;20402;-62
2021/07/01 04:14:57;;;;;;;0.40;0.40;;;14.30;99.90;;;;;;5054435;28;20442;-63
2021/07/01 04:17:24;;;;;;;0.50;0.50;;;14.30;99.90;;;;;;5055112;28;20247;-63
2021/07/01 04:19:49;;;;;;;1.03;0.80;;;14.30;99.90;;;;;;5046250;28;20193;-62
2021/07/01 04:22:15;;;;;;;2.47;0.60;;;14.40;99.90;;;;;;5035929;28;20518;-62
2021/07/01 04:24:41;;;;;;;0.87;0.70;;;14.40;99.90;;;;;;5036221;28;20173;-62
2021/07/01 04:27:06;;;;;;;0.60;0.60;;;14.40;99.90;;;;;;5035770;28;20177;-63
2021/07/01 04:29:32;;;;;;;1.90;0.70;;;14.40;99.90;;;;;;5042336;28;20713;-63
2021/07/01 04:31:58;;;;;;;1.13;0.90;;;14.40;99.90;;;;;;5055846;28;20187;-63
2021/07/01 04:34:23;;;;;;;0.40;0.40;;;14.40;99.90;;;;;;5050248;28;20212;-63
2021/07/01 04:36:49;;;;;;;0.60;0.60;;;14.50;99.90;;;;;;5043139;28;20603;-63
2021/07/01 04:39:15;;;;;;;1.00;0.70;;;14.50;99.90;;;;;;5044945;28;20465;-63
2021/07/01 04:41:40;;;;;;;0.53;0.53;;;14.50;99.90;;;;;;5034415;28;20272;-62
2021/07/01 04:44:06;;;;;;;0.70;0.70;;;14.50;99.90;;;;;;5037937;28;20205;-62
2021/07/01 04:46:32;;;;;;;0.80;0.50;;;14.50;99.90;;;;;;5053637;28;20200;-63
2021/07/01 04:48:59;;;;;;;0.60;0.60;;;14.50;99.90;;;;;;5053904;28;20286;-62
2021/07/01 04:51:26;;;;;;;1.93;0.70;;;14.60;99.90;;;;;;5035442;28;20394;-63
2021/07/01 04:53:51;;;;;;;2.60;0.87;;;14.60;99.90;;;;;;5035463;28;20426;-63
2021/07/01 04:56:17;;;;;;;1.70;0.70;;;14.60;99.90;;;;;;5035457;28;20447;-63
2021/07/01 04:58:43;;;;;;;0.50;0.50;;;14.60;99.90;;;;;;5034738;28;20694;-63
2021/07/01 05:01:08;;;;;;;0.60;0.60;;;14.70;99.90;;;;;;5036308;28;20424;-63
2021/07/01 05:03:34;;;;;;;1.07;0.80;;;14.70;99.90;;;;;;5035334;28;20196;-62
2021/07/01 05:06:00;;;;;;;0.90;0.60;;;14.70;99.90;;;;;;5047538;28;20189;-63
2021/07/01 05:08:25;;;;;;;0.90;0.67;;;14.80;99.90;;;;;;5034691;28;20182;-63
2021/07/01 05:10:51;;;;;;;0.57;0.57;;;14.80;99.90;;;;;;5035060;28;20180;-63
2021/07/01 05:13:17;;;;;;;0.97;0.97;;;14.80;99.90;;;;;;5037175;28;20674;-63
2021/07/01 05:15:42;;;;;;;0.60;0.50;;;14.90;99.90;;;;;;5048046;28;20539;-63
2021/07/01 05:18:08;;;;;;;0.80;0.80;;;15.00;99.90;;;;;;5035035;28;20687;-63
2021/07/01 05:20:34;;;;;;;4.87;2.27;;;15.00;99.90;;;;;;5054400;28;20204;-64
2021/07/01 05:22:59;;;;;;;2.97;2.67;;;15.10;99.90;;;;;;5055040;28;20161;-63
2021/07/01 05:25:25;;;;;;;0.80;0.80;;;15.10;99.90;;;;;;5049675;28;20276;-63
2021/07/01 05:27:51;;;;;;;0.80;0.60;;;15.20;99.90;;;;;;5051226;28;20682;-63
2021/07/01 05:30:17;;;;;;;0.50;0.50;;;15.20;99.90;;;;;;5052684;28;20193;-63
2021/07/01 05:32:43;;;;;;;0.70;0.70;;;15.20;99.90;;;;;;5040760;28;20182;-63
2021/07/01 05:35:09;;;;;;;0.80;0.60;;;15.20;99.90;;;;;;5049608;28;20398;-63
2021/07/01 05:37:35;;;;;;;2.63;0.80;;;15.20;99.90;;;;;;5041814;28;20398;-63
2021/07/01 05:40:01;;;;;;;0.73;0.73;;;15.20;99.90;;;;;;5034486;28;20443;-63
2021/07/01 05:42:27;;;;;;;0.60;0.60;;;15.20;99.90;;;;;;5038721;28;21050;-63
2021/07/01 05:44:52;;;;;;;0.63;0.63;;;15.10;99.90;;;;;;5048461;28;20518;-66
2021/07/01 05:47:18;;;;;;;0.50;0.50;;;15.10;99.90;;;;;;5050946;28;20174;-66
2021/07/01 05:49:45;;;;;;;5.20;3.70;;;15.20;99.90;;;;;;5048954;28;20201;-67
2021/07/01 05:52:12;;;;;;;0.97;0.87;;;15.20;99.90;;;;;;5034087;28;20533;-67
2021/07/01 05:54:59;;;;;;;0.57;0.50;;;15.20;99.90;;;;;;5037538;28;20413;-67
2021/07/01 05:57:29;;;;;;;0.63;0.63;;;15.30;99.90;;;;;;5051744;28;20454;-66
2021/07/01 05:59:55;;;;;;;0.53;0.50;;;15.30;99.90;;;;;;5053012;28;20491;-68
2021/07/01 06:02:22;;;;;;;0.50;0.50;;;15.40;99.90;;;;;;5053832;28;20501;-67
2021/07/01 06:04:48;;;;;;;1.63;0.90;;;15.50;99.90;;;;;;5048735;28;20190;-71
2021/07/01 06:07:23;;;;;;;1.00;0.60;;;15.50;99.90;;;;;;5033643;28;20423;-69
2021/07/01 06:09:52;;;;;;;0.70;0.70;;;15.60;99.90;;;;;;5032659;28;20459;-69
2021/07/01 06:12:17;;;;;;;0.60;0.50;;;15.60;99.90;;;;;;5033962;28;20785;-72
2021/07/01 06:14:44;;;;;;;0.83;0.50;;;15.70;99.90;;;;;;5044495;28;20523;-69
2021/07/01 06:17:15;;;;;;;1.40;0.77;;;15.70;99.90;;;;;;5049796;28;20262;-67
2021/07/01 06:19:41;;;;;;;0.50;0.50;;;15.70;99.90;;;;;;5033936;28;20448;-70
2021/07/01 06:22:07;;;;;;;1.00;1.00;;;15.70;99.90;;;;;;5034047;28;20409;-69
2021/07/01 06:24:34;;;;;;;0.60;0.60;;;15.70;99.90;;;;;;5037031;28;20857;-65
2021/07/01 06:27:02;;;;;;;1.13;0.80;;;15.70;99.90;;;;;;5051212;28;20408;-73
2021/07/01 06:29:27;;;;;;;0.77;0.77;;;15.70;99.90;;;;;;5043578;28;21054;-67
2021/07/01 06:31:53;;;;;;;2.10;0.80;;;15.70;99.90;;;;;;5037194;28;20511;-69
2021/07/01 06:34:18;;;;;;;0.83;0.80;;;15.80;99.90;;;;;;5052590;28;20196;-67
2021/07/01 06:36:47;;;;;;;0.80;0.80;;;15.70;99.90;;;;;;5053424;28;20216;-72
2021/07/01 06:39:13;;;;;;;0.70;0.60;;;15.70;99.90;;;;;;5047542;28;20210;-67
2021/07/01 06:41:44;;;;;;;3.00;2.60;;;15.60;99.90;;;;;;5045913;28;20960;-66
2021/07/01 06:44:12;;;;;;;2.10;1.70;;;15.60;99.90;;;;;;5052858;28;20519;-68
2021/07/01 06:46:40;;;;;;;0.70;0.70;;;15.70;99.90;;;;;;5053101;28;20487;-69
2021/07/01 06:49:06;;;;;;;1.03;1.03;;;15.70;99.90;;;;;;5033515;28;20910;-65
2021/07/01 06:51:39;;;;;;;1.00;1.00;;;15.60;99.90;;;;;;5036837;28;20486;-65
2021/07/01 06:54:07;;;;;;;0.93;0.83;;;15.70;99.90;;;;;;5048519;28;20459;-65
2021/07/01 06:56:39;;;;;;;0.60;0.50;;;15.70;99.90;;;;;;5038384;28;20950;-64
2021/07/01 06:59:10;;;;;;;0.73;0.70;;;15.80;99.90;;;;;;5052684;28;20911;-64
2021/07/01 07:01:38;;;;;;;0.70;0.70;;;15.80;99.90;;;;;;5053603;28;20440;-65
2021/07/01 07:04:04;;;;;;;0.87;0.87;;;15.70;99.90;;;;;;5043631;28;20423;-67
2021/07/01 07:06:30;;;;;;;1.73;1.40;;;15.70;99.90;;;;;;5037672;28;20448;-64
2021/07/01 07:08:57;;;;;;;0.60;0.60;;;15.70;99.90;;;;;;5052391;28;20466;-64
2021/07/01 07:11:24;;;;;;;1.43;1.20;;;15.70;99.90;;;;;;5047662;28;20190;-64
2021/07/01 07:13:49;;;;;;;0.67;0.67;;;15.70;99.90;;;;;;5040367;28;20407;-65
2021/07/01 07:16:16;;;;;;;1.57;1.47;;;15.80;99.90;;;;;;5040236;28;20446;-65
2021/07/01 07:18:42;;;;;;;2.67;1.10;;;15.90;99.90;;;;;;5050719;28;20236;-64
2021/07/01 07:21:14;;;;;;;1.70;1.27;;;15.90;99.90;;;;;;5051674;28;20485;-65
2021/07/01 07:23:40;;;;;;;2.77;0.67;;;15.90;99.90;;;;;;5052074;28;20431;-64
2021/07/01 07:26:12;;;;;;;0.87;0.87;;;15.90;99.90;;;;;;5052774;28;20408;-65
2021/07/01 07:28:41;;;;;;;0.97;0.97;;;16.00;99.90;;;;;;5046237;28;20348;-64
2021/07/01 07:31:09;;;;;;;0.60;0.60;;;16.00;99.90;;;;;;5032979;28;20727;-68
2021/07/01 07:33:35;;;;;;;1.40;1.03;;;16.00;99.90;;;;;;5039588;28;20402;-70
2021/07/01 07:36:02;;;;;;;1.80;1.00;;;16.00;99.90;;;;;;5046845;28;20464;-69
2021/07/01 07:38:28;;;;;;;1.00;0.90;;;16.10;99.90;;;;;;5032018;28;20436;-70
2021/07/01 07:40:55;;;;;;;0.73;0.73;;;16.10;99.90;;;;;;5033782;28;20454;-70
2021/07/01 07:43:22;;;;;;;1.30;1.20;;;16.20;99.90;;;;;;5044571;28;20391;-69
2021/07/01 07:45:50;;;;;;;1.50;1.40;;;16.30;99.90;;;;;;5032458;28;20379;-70
2021/07/01 07:48:16;;;;;;;0.93;0.90;;;16.40;99.90;;;;;;5039199;28;20500;-69
2021/07/01 07:50:48;;;;;;;1.00;1.00;;;16.50;99.90;;;;;;5052439;28;20420;-70
2021/07/01 07:53:20;;;;;;;1.50;1.43;;;16.60;99.90;;;;;;5052476;28;20495;-69
2021/07/01 07:55:48;;;;;;;1.40;1.30;;;16.70;99.90;;;;;;5052226;28;20407;-70
2021/07/01 07:58:16;;;;;;;1.70;1.60;;;16.80;99.90;;;;;;5051477;28;20439;-70
2021/07/01 08:00:43;;;;;;;1.17;1.17;;;17.00;99.90;;;;;;5052732;28;20463;-69
2021/07/01 08:03:10;;;;;;;2.20;1.60;;;17.10;99.90;;;;;;5056088;28;20413;-69
2021/07/01 08:05:38;;;;;;;1.07;1.03;;;17.30;99.90;;;;;;5056053;28;20755;-70
2021/07/01 08:08:12;;;;;;;1.43;1.10;;;17.40;99.90;;;;;;5055643;28;20812;-69
2021/07/01 08:10:39;;;;;;;0.83;0.83;;;17.60;99.90;;;;;;5055240;28;20434;-69
2021/07/01 08:13:06;;;;;;;1.67;1.57;;;17.70;99.90;;;;;;5036107;28;20402;-70
2021/07/01 08:15:37;;;;;;;2.00;1.80;;;17.70;99.90;;;;;;5036109;28;20422;-69
2021/07/01 08:18:04;;;;;;;2.20;2.00;;;17.80;99.90;;;;;;5035509;28;20485;-69
2021/07/01 08:20:30;;;;;;;3.33;1.90;;;17.70;99.90;;;;;;5035654;28;20389;-68
2021/07/01 08:22:56;;;;;;;1.00;0.93;;;17.60;99.90;;;;;;5035914;28;20415;-69
2021/07/01 08:25:24;;;;;;;1.13;1.03;;;17.50;99.90;;;;;;5035898;28;20406;-68
2021/07/01 08:27:51;;;;;;;1.30;1.20;;;17.40;99.90;;;;;;5055474;28;20444;-69
2021/07/01 08:30:24;;;;;;;2.47;1.93;;;17.30;99.90;;;;;;5055509;28;20431;-69
2021/07/01 08:32:55;;;;;;;2.70;2.13;;;17.20;99.90;;;;;;5056320;28;20958;-70
2021/07/01 08:35:23;;;;;;;1.50;1.40;;;17.20;99.90;;;;;;5055680;28;20891;-69
2021/07/01 08:37:55;;;;;;;2.37;1.50;;;17.10;99.90;;;;;;5055491;28;20396;-69
2021/07/01 08:40:29;;;;;;;2.30;1.43;;;17.10;99.90;;;;;;5052037;28;20423;-70
2021/07/01 08:42:57;;;;;;;1.40;1.30;;;17.20;99.90;;;;;;5035917;28;20480;-70
2021/07/01 08:45:33;;;;;;;1.70;1.33;;;17.20;99.90;;;;;;5054805;28;20422;-70
2021/07/01 08:48:00;;;;;;;2.10;1.70;;;17.40;99.90;;;;;;5055104;28;20897;-68
2021/07/01 08:50:31;;;;;;;1.97;1.30;;;17.60;99.90;;;;;;5055520;28;20396;-69
2021/07/01 08:53:22;;;;;;;1.43;1.33;;;17.90;99.90;;;;;;5055636;28;20799;-70
2021/07/01 08:55:51;;;;;;;2.07;1.37;;;18.10;99.90;;;;;;5047435;28;20399;-70
2021/07/01 08:58:22;;;;;;;1.70;1.53;;;18.20;99.90;;;;;;5034972;28;20472;-70
2021/07/01 09:00:48;;;;;;;2.10;1.90;;;18.40;99.90;;;;;;5035518;28;20391;-70
2021/07/01 09:03:16;;;;;;;1.27;1.17;;;18.50;99.90;;;;;;5035702;28;20405;-71
2021/07/01 09:05:45;;;;;;;4.20;1.53;;;18.60;99.90;;;;;;5035435;28;20414;-70
2021/07/01 09:08:14;;;;;;;1.10;1.10;;;18.60;99.90;;;;;;5035063;28;20384;-69
2021/07/01 09:10:51;;;;;;;2.40;1.70;;;18.60;99.90;;;;;;5042532;28;20416;-69
2021/07/01 09:13:20;;;;;;;1.37;1.30;;;18.50;99.90;;;;;;5052650;28;20489;-69
2021/07/01 09:15:48;;;;;;;1.80;1.70;;;18.30;99.90;;;;;;5035630;28;20417;-70
2021/07/01 09:18:15;;;;;;;2.53;2.20;;;18.20;99.90;;;;;;5036309;28;20977;-70
2021/07/01 09:20:41;;;;;;;2.43;2.03;;;18.10;99.90;;;;;;5055588;28;20435;-68
2021/07/01 09:23:10;;;;;;;1.20;1.10;;;17.90;99.90;;;;;;5055275;28;20399;-69
2021/07/01 09:25:40;;;;;;;1.67;1.57;;;17.90;99.90;;;;;;5055345;28;20406;-70
2021/07/01 09:28:05;;;;;;;1.80;1.70;;;17.80;99.90;;;;;;5054987;28;20379;-68
2021/07/01 09:30:32;;;;;;;1.40;1.30;;;17.70;99.90;;;;;;5055324;28;20923;-70
2021/07/01 09:33:04;;;;;;;1.37;1.27;;;17.70;99.90;;;;;;5054665;28;20416;-69
2021/07/01 09:35:34;;;;;;;1.50;1.40;;;17.60;99.90;;;;;;5054717;28;20472;-69
2021/07/01 09:38:03;;;;;;;4.23;1.53;;;17.50;99.90;;;;;;5054427;28;20442;-69
2021/07/01 09:40:29;;;;;;;1.83;1.73;;;17.40;99.90;;;;;;5054479;28;20404;-70
2021/07/01 09:43:02;;;;;;;1.70;1.60;;;17.50;99.90;;;;;;5040563;28;20386;-69
2021/07/01 09:45:29;;;;;;;1.77;1.60;;;17.50;99.90;;;;;;5034659;28;20394;-68
2021/07/01 09:48:04;;;;;;;1.57;1.47;;;17.60;99.90;;;;;;5034597;28;20448;-69
2021/07/01 09:50:37;;;;;;;1.20;1.10;;;17.70;99.90;;;;;;5034610;28;20527;-71
2021/07/01 09:53:04;;;;;;;1.93;1.77;;;17.80;99.90;;;;;;5034712;28;20382;-71
2021/07/01 09:55:31;;;;;;;1.60;1.50;;;18.00;99.90;;;;;;5034602;28;20408;-71
2021/07/01 09:58:03;;;;;;;1.30;1.27;;;18.10;99.90;;;;;;5049758;28;20455;-69
2021/07/01 10:00:31;;;;;;;9.20;1.73;;;18.20;99.90;;;;;;5054154;28;20424;-69
2021/07/01 10:03:07;;;;;;;2.00;1.60;;;18.30;99.90;;;;;;5054363;28;20726;-69
2021/07/01 10:05:35;;;;;;;1.13;1.13;;;18.50;99.90;;;;;;5043327;28;20421;-70
2021/07/01 10:08:01;;;;;;;1.90;1.80;;;18.60;99.90;;;;;;5033784;28;20420;-70
2021/07/01 10:10:27;;;;;;;1.80;1.27;;;18.70;99.90;;;;;;5034158;28;20388;-69
2021/07/01 10:12:58;;;;;;;1.67;1.57;;;18.90;99.90;;;;;;5034432;28;20620;-68
2021/07/01 10:15:35;;;;;;;1.77;1.67;;;19.20;99.90;;;;;;5034313;28;20413;-68
2021/07/01 10:18:07;;;;;;;2.23;2.03;;;19.40;99.90;;;;;;5033674;28;20564;-69
2021/07/01 10:20:34;;;;;;;2.00;1.80;;;19.30;99.90;;;;;;5045195;28;21083;-71
2021/07/01 10:23:01;;;;;;;1.80;1.70;;;19.30;99.90;;;;;;5053499;28;20487;-70
2021/07/01 10:25:32;;;;;;;1.60;1.50;;;19.10;99.90;;;;;;5033836;28;20485;-68
2021/07/01 10:28:11;;;;;;;2.13;1.93;;;18.80;99.90;;;;;;5033657;28;20457;-69
2021/07/01 10:30:37;;;;;;;1.40;1.30;;;18.60;99.90;;;;;;5033847;28;20420;-67
2021/07/01 10:33:04;;;;;;;1.30;1.20;;;18.30;99.90;;;;;;5033999;28;20918;-69
2021/07/01 10:35:34;;;;;;;2.20;1.47;;;17.90;99.90;;;;;;5033533;28;20427;-69
2021/07/01 10:38:12;;;;;;;2.70;2.07;;;17.70;99.90;;;;;;5033098;28;20461;-69
2021/07/01 10:40:45;;;;;;;3.60;2.20;;;17.60;99.90;;;;;;5033612;28;20755;-68
2021/07/01 10:43:12;;;;;;;2.47;2.10;;;17.50;99.90;;;;;;5033836;28;20399;-68
2021/07/01 10:45:57;;;;;;;3.47;2.67;;;17.40;99.90;;;;;;5033611;28;20402;-69
2021/07/01 10:48:24;;;;;;;2.27;1.73;;;17.30;99.90;;;;;;5033428;28;20411;-69
2021/07/01 10:50:51;;;;;;;2.90;2.70;;;17.20;99.90;;;;;;5051075;28;20421;-69
2021/07/01 10:53:27;;;;;;;2.40;2.17;;;17.10;99.90;;;;;;5053527;28;20417;-70
2021/07/01 10:55:54;;;;;;;1.20;1.10;;;16.90;99.90;;;;;;5053575;28;20402;-70
2021/07/01 10:58:20;;;;;;;1.37;1.30;;;16.70;99.90;;;;;;5052384;28;20517;-68
2021/07/01 11:00:46;;;;;;;1.03;0.93;;;16.40;99.90;;;;;;5053173;28;20400;-69
2021/07/01 11:03:20;;;;;;;1.60;1.50;;;16.20;99.90;;;;;;5053089;28;20374;-71
2021/07/01 11:05:46;;;;;;;2.40;1.40;;;16.00;99.90;;;;;;5052908;28;20177;-69
2021/07/01 11:08:34;;;;;;;1.40;1.30;;;15.90;99.90;;;;;;5052837;28;20764;-68
2021/07/01 11:11:02;;;;;;;2.30;1.50;;;15.90;99.90;;;;;;5053039;28;20404;-69
2021/07/01 11:13:29;;;;;;;1.30;1.20;;;15.90;99.90;;;;;;5053325;28;20383;-69
2021/07/01 11:16:15;;;;;;;1.87;1.60;;;16.00;99.90;;;;;;5053521;28;20432;-68
2021/07/01 11:18:43;;;;;;;2.50;1.57;;;16.10;99.90;;;;;;5048306;28;20434;-70
2021/07/01 11:21:21;;;;;;;1.83;1.73;;;16.20;99.90;;;;;;5033475;28;20785;-69
2021/07/01 11:23:50;;;;;;;1.23;1.13;;;16.40;99.90;;;;;;5033473;28;20487;-69
2021/07/01 11:26:22;;;;;;;1.53;1.43;;;16.60;99.90;;;;;;5033135;28;20411;-68
2021/07/01 11:28:48;;;;;;;2.87;2.43;;;16.80;99.90;;;;;;5032515;28;20455;-69
2021/07/01 11:31:14;;;;;;;5.30;2.50;;;17.00;99.90;;;;;;5033261;28;20382;-69
2021/07/01 11:33:45;;;;;;;2.00;1.83;;;17.20;99.90;;;;;;5033383;28;20168;-70
2021/07/01 11:36:15;;;;;;;1.67;1.57;;;17.40;99.90;;;;;;5036127;28;20378;-69
2021/07/01 11:38:42;;;;;;;1.80;1.50;;;17.50;99.90;;;;;;5036492;28;20431;-71
2021/07/01 11:41:09;;;;;;;2.43;1.70;;;17.60;99.90;;;;;;5037187;28;20816;-70
2021/07/01 11:43:44;;;;;;;1.50;1.40;;;17.60;99.90;;;;;;5055289;28;20401;-69
2021/07/01 11:46:10;;;;;;;1.57;1.30;;;17.60;99.90;;;;;;5056615;28;20747;-69
2021/07/01 11:48:37;;;;;;;2.10;1.83;;;17.50;99.90;;;;;;5056258;28;20460;-71
2021/07/01 11:51:05;;;;;;;1.37;1.30;;;17.50;99.90;;;;;;5056713;28;20176;-70
2021/07/01 11:53:30;;;;;;;1.47;1.37;;;17.40;99.90;;;;;;5056730;28;20410;-68
2021/07/01 11:55:59;;;;;;;1.63;1.50;;;17.50;99.90;;;;;;5056669;28;20407;-68
2021/07/01 11:58:25;;;;;;;3.00;1.70;;;17.60;99.90;;;;;;5036366;28;20564;-70
2021/07/01 12:00:52;;;;;;;2.67;1.93;;;17.70;99.90;;;;;;5036692;28;20410;-69
2021/07/01 12:03:18;;;;;;;1.50;1.40;;;17.90;99.90;;;;;;5036306;28;20391;-69
2021/07/01 12:05:47;;;;;;;1.13;1.10;;;18.00;99.90;;;;;;5036342;28;20437;-71
2021/07/01 12:08:14;;;;;;;2.50;2.07;;;18.20;99.90;;;;;;5035863;28;20785;-68
2021/07/01 12:10:40;;;;;;;5.60;3.70;;;18.40;99.90;;;;;;5036052;28;20431;-68
2021/07/01 12:13:34;;;;;;;2.03;1.93;;;18.70;99.90;;;;;;5036056;28;20399;-69
2021/07/01 12:16:16;;;;;;;1.57;1.47;;;18.90;99.90;;;;;;5036380;28;20409;-69
2021/07/01 12:18:48;;;;;;;1.73;1.63;;;19.00;99.90;;;;;;5035558;28;20519;-70
2021/07/01 12:21:19;;;;;;;1.70;1.50;;;19.20;99.90;;;;;;5036015;28;20419;-70
2021/07/01 12:23:45;;;;;;;1.70;1.60;;;19.30;99.90;;;;;;5036157;28;20419;-69
2021/07/01 12:26:29;;;;;;;2.20;1.73;;;19.40;99.90;;;;;;5040594;28;20420;-70
2021/07/01 12:28:54;;;;;;;2.20;2.00;;;19.40;99.90;;;;;;5055415;28;20431;-71
2021/07/01 12:31:25;;;;;;;1.37;1.27;;;19.30;99.90;;;;;;5055875;28;20416;-69
2021/07/01 12:34:01;;;;;;;2.00;1.80;;;19.40;99.90;;;;;;5056015;28;20170;-69
2021/07/01 12:36:28;;;;;;;3.20;1.90;;;19.30;99.90;;;;;;5055978;28;20407;-70
2021/07/01 12:39:10;;;;;;;1.53;1.43;;;19.40;99.90;;;;;;5055236;28;20434;-70
2021/07/01 12:41:38;;;;;;;1.73;1.63;;;19.60;99.90;;;;;;5055473;28;20414;-70
2021/07/01 12:44:12;;;;;;;2.43;2.27;;;19.90;99.90;;;;;;5056056;28;20391;-69
2021/07/01 12:46:46;;;;;;;2.20;2.00;;;20.00;99.90;;;;;;5055102;28;20909;-70
2021/07/01 12:49:22;;;;;;;2.50;2.10;;;20.00;99.90;;;;;;5045357;28;20523;-69
2021/07/01 12:51:48;;;;;;;2.60;2.07;;;19.70;99.90;;;;;;5035261;28;20975;-69